createdAt,value
2023-03-12T00:02:17.429Z,8.05
2023-03-12T00:04:43.887Z,7.65
2023-03-12T00:07:10.270Z,6.53
2023-03-12T00:09:38.402Z,10.77
2023-03-12T00:12:06.043Z,9.48
2023-03-12T00:14:33.030Z,8.25
2023-03-12T00:16:59.541Z,11.20
2023-03-12T00:19:26.031Z,11.30
2023-03-12T00:21:52.555Z,7.07
2023-03-12T00:24:19.203Z,10.23
2023-03-12T00:26:45.567Z,7.18
2023-03-12T00:29:11.978Z,9.32
2023-03-12T00:31:38.403Z,6.40
2023-03-12T00:34:04.896Z,8.60
2023-03-12T00:36:32.801Z,8.00
2023-03-12T00:39:00.982Z,5.85
2023-03-12T00:41:28.519Z,7.07
2023-03-12T00:43:54.893Z,8.27
2023-03-12T00:46:21.700Z,9.02
2023-03-12T00:48:48.198Z,7.20
2023-03-12T00:51:14.726Z,7.72
2023-03-12T00:53:41.134Z,7.35
2023-03-12T00:56:07.637Z,6.50
2023-03-12T00:58:34.039Z,5.93
2023-03-12T01:01:00.718Z,14.68
2023-03-12T01:03:27.701Z,6.47
2023-03-12T01:05:56.935Z,8.50
2023-03-12T01:08:23.925Z,16.45
2023-03-12T01:10:50.780Z,7.22
2023-03-12T01:13:17.426Z,7.53
2023-03-12T01:15:43.839Z,10.15
2023-03-12T01:18:10.301Z,7.82
2023-03-12T01:20:36.923Z,9.50
2023-03-12T01:23:03.720Z,5.88
2023-03-12T01:25:30.148Z,10.88
2023-03-12T01:27:56.599Z,5.85
2023-03-12T01:30:23.682Z,7.47
2023-03-12T01:32:51.984Z,6.45
2023-03-12T01:35:18.543Z,12.20
2023-03-12T01:37:44.973Z,7.35
2023-03-12T01:40:18.895Z,7.80
2023-03-12T01:43:11.887Z,9.60
2023-03-12T01:46:05.887Z,4.90
2023-03-12T01:48:39.674Z,5.10
2023-03-12T01:51:07.490Z,7.28
2023-03-12T01:53:34.487Z,7.57
2023-03-12T01:56:01.899Z,5.88
2023-03-12T01:58:32.644Z,9.57
2023-03-12T02:00:59.590Z,7.43
2023-03-12T02:03:26.117Z,8.82
2023-03-12T02:05:57.982Z,6.13
2023-03-12T02:08:27.246Z,8.10
2023-03-12T02:10:53.772Z,6.95
2023-03-12T02:13:20.374Z,7.63
2023-03-12T02:15:47.056Z,5.07
2023-03-12T02:18:18.000Z,6.18
2023-03-12T02:20:52.042Z,4.93
2023-03-12T02:23:52.098Z,8.63
2023-03-12T02:26:20.016Z,9.45
2023-03-12T02:28:47.353Z,6.70
2023-03-12T02:31:18.205Z,5.30
2023-03-12T02:33:44.584Z,9.10
2023-03-12T02:36:11.100Z,8.10
2023-03-12T02:38:46.969Z,8.57
2023-03-12T02:41:23.956Z,7.95
2023-03-12T02:44:13.374Z,5.30
2023-03-12T02:46:49.333Z,10.05
2023-03-12T02:49:16.896Z,5.70
2023-03-12T02:51:44.915Z,9.13
2023-03-12T02:54:12.571Z,7.03
2023-03-12T02:56:40.034Z,6.45
2023-03-12T02:59:08.039Z,8.48
2023-03-12T03:01:34.920Z,4.47
2023-03-12T03:04:03.131Z,9.45
2023-03-12T03:06:29.933Z,7.97
2023-03-12T03:08:56.449Z,7.75
2023-03-12T03:11:24.649Z,5.55
2023-03-12T03:13:52.251Z,5.85
2023-03-12T03:16:18.920Z,5.93
2023-03-12T03:18:45.378Z,6.97
2023-03-12T03:21:16.432Z,5.90
2023-03-12T03:23:45.448Z,7.28
2023-03-12T03:26:11.921Z,6.25
2023-03-12T03:28:38.279Z,11.27
2023-03-12T03:31:05.076Z,7.72
2023-03-12T03:33:34.559Z,6.57
2023-03-12T03:36:02.189Z,4.88
2023-03-12T03:38:30.663Z,5.03
2023-03-12T03:40:57.755Z,4.85
2023-03-12T03:43:24.875Z,4.88
2023-03-12T03:46:05.715Z,3.58
2023-03-12T03:48:32.931Z,3.78
2023-03-12T03:51:04.151Z,7.65
2023-03-12T03:53:31.527Z,5.22
2023-03-12T03:55:58.125Z,5.07
2023-03-12T03:58:24.573Z,8.82
2023-03-12T04:00:51.051Z,5.15
2023-03-12T04:03:17.474Z,4.93
2023-03-12T04:05:45.185Z,5.63
2023-03-12T04:08:13.268Z,6.40
2023-03-12T04:10:40.081Z,4.13
2023-03-12T04:13:06.610Z,7.72
2023-03-12T04:15:33.010Z,5.95
2023-03-12T04:17:59.479Z,5.28
2023-03-12T04:20:25.893Z,5.85
2023-03-12T04:22:52.270Z,5.18
2023-03-12T04:25:18.788Z,6.43
2023-03-12T04:27:45.166Z,6.93
2023-03-12T04:30:12.056Z,6.82
2023-03-12T04:32:38.501Z,6.10
2023-03-12T04:35:05.148Z,5.93
2023-03-12T04:37:33.877Z,6.20
2023-03-12T04:40:02.433Z,6.13
2023-03-12T04:42:28.867Z,6.47
2023-03-12T04:44:55.368Z,6.95
2023-03-12T04:47:21.721Z,10.02
2023-03-12T04:49:48.203Z,6.70
2023-03-12T04:52:14.680Z,6.32
2023-03-12T04:54:41.024Z,5.82
2023-03-12T04:57:07.450Z,10.18
2023-03-12T04:59:33.940Z,4.53
2023-03-12T05:02:00.318Z,5.60
2023-03-12T05:04:26.983Z,7.57
2023-03-12T05:06:53.349Z,5.75
2023-03-12T05:09:19.782Z,6.97
2023-03-12T05:11:46.319Z,6.32
2023-03-12T05:14:12.851Z,4.95
2023-03-12T05:16:39.325Z,6.93
2023-03-12T05:19:06.190Z,7.47
2023-03-12T05:21:33.200Z,6.63
2023-03-12T05:23:59.847Z,6.80
2023-03-12T05:26:28.875Z,8.95
2023-03-12T05:28:55.829Z,5.47
2023-03-12T05:31:22.270Z,6.60
2023-03-12T05:33:51.652Z,7.55
2023-03-12T05:36:19.744Z,10.00
2023-03-12T05:38:46.577Z,7.60
2023-03-12T05:41:25.842Z,4.57
2023-03-12T05:43:54.286Z,9.82
2023-03-12T05:46:20.963Z,6.45
2023-03-12T05:48:47.627Z,6.50
2023-03-12T05:51:14.366Z,5.95
2023-03-12T05:53:40.748Z,5.70
2023-03-12T05:56:11.473Z,6.78
2023-03-12T05:58:38.474Z,9.10
2023-03-12T06:01:22.324Z,5.78
2023-03-12T06:03:48.765Z,5.65
2023-03-12T06:06:15.854Z,9.07
2023-03-12T06:08:43.060Z,5.13
2023-03-12T06:11:09.644Z,7.20
2023-03-12T06:13:36.490Z,9.98
2023-03-12T06:16:04.495Z,10.70
2023-03-12T06:18:32.968Z,9.40
2023-03-12T06:21:16.932Z,5.85
2023-03-12T06:23:44.374Z,14.63
2023-03-12T06:26:12.105Z,8.45
2023-03-12T06:28:38.857Z,7.40
2023-03-12T06:31:06.377Z,9.70
2023-03-12T06:33:33.684Z,12.07
2023-03-12T06:36:02.609Z,16.27
2023-03-12T06:38:29.378Z,6.68
2023-03-12T06:41:00.458Z,9.30
2023-03-12T06:43:29.412Z,9.57
2023-03-12T06:45:57.317Z,10.07
2023-03-12T06:48:24.704Z,9.35
2023-03-12T06:50:51.645Z,18.52
2023-03-12T06:53:18.959Z,5.03
2023-03-12T06:55:45.977Z,10.07
2023-03-12T06:58:12.684Z,9.38
2023-03-12T07:00:39.150Z,9.45
2023-03-12T07:03:05.604Z,8.23
2023-03-12T07:05:32.019Z,4.43
2023-03-12T07:07:58.388Z,8.73
2023-03-12T07:10:28.069Z,8.57
2023-03-12T07:12:55.303Z,7.82
2023-03-12T07:15:22.518Z,8.38
2023-03-12T07:17:49.021Z,7.40
2023-03-12T07:20:15.402Z,9.48
2023-03-12T07:22:41.760Z,6.95
2023-03-12T07:25:09.544Z,11.85
2023-03-12T07:27:35.904Z,8.10
2023-03-12T07:30:02.430Z,8.55
2023-03-12T07:32:28.955Z,8.88
2023-03-12T07:34:55.292Z,8.10
2023-03-12T07:37:21.838Z,8.13
2023-03-12T07:39:52.153Z,5.80
2023-03-12T07:42:18.611Z,7.97
2023-03-12T07:44:44.972Z,8.95
2023-03-12T07:47:23.092Z,8.23
2023-03-12T07:49:50.770Z,8.43
2023-03-12T07:52:18.244Z,9.85
2023-03-12T07:54:44.836Z,5.07
2023-03-12T07:57:11.512Z,8.15
2023-03-12T07:59:38.035Z,7.90
2023-03-12T08:02:04.594Z,10.07
2023-03-12T08:04:31.180Z,7.22
2023-03-12T08:06:57.611Z,7.57
2023-03-12T08:09:23.966Z,8.48
2023-03-12T08:11:50.409Z,7.47
2023-03-12T08:14:16.842Z,4.13
2023-03-12T08:16:43.321Z,9.30
2023-03-12T08:19:09.778Z,7.93
2023-03-12T08:21:36.146Z,9.13
2023-03-12T08:24:02.610Z,13.93
2023-03-12T08:26:29.037Z,10.40
2023-03-12T08:28:56.785Z,8.20
2023-03-12T08:31:23.336Z,5.45
2023-03-12T08:33:49.707Z,7.65
2023-03-12T08:36:16.074Z,10.63
2023-03-12T08:38:42.485Z,8.55
2023-03-12T08:41:08.917Z,12.77
2023-03-12T08:43:35.303Z,7.70
2023-03-12T08:46:03.161Z,9.77
2023-03-12T08:48:31.409Z,9.00
2023-03-12T08:50:59.922Z,9.25
2023-03-12T08:53:27.561Z,12.63
2023-03-12T08:55:55.058Z,12.55
2023-03-12T08:58:23.084Z,8.93
2023-03-12T09:00:49.530Z,10.43
2023-03-12T09:03:16.598Z,8.65
2023-03-12T09:05:43.896Z,10.27
2023-03-12T09:08:11.604Z,9.65
2023-03-12T09:10:38.974Z,9.15
2023-03-12T09:13:06.264Z,8.88
2023-03-12T09:15:33.486Z,11.65
2023-03-12T09:17:59.872Z,8.52
2023-03-12T09:20:26.351Z,11.13
2023-03-12T09:22:52.842Z,10.43
2023-03-12T09:25:19.453Z,9.77
2023-03-12T09:27:48.015Z,10.18
2023-03-12T09:30:20.562Z,10.70
2023-03-12T09:32:47.331Z,8.43
2023-03-12T09:35:15.873Z,10.05
2023-03-12T09:37:42.727Z,13.30
2023-03-12T09:40:17.968Z,9.00
2023-03-12T09:45:22.239Z,10.82
2023-03-12T09:47:54.135Z,12.00
2023-03-12T09:50:28.323Z,8.70
2023-03-12T09:52:59.623Z,9.93
2023-03-12T09:55:28.700Z,10.85
2023-03-12T09:57:56.345Z,8.40
2023-03-12T10:00:27.010Z,9.70
2023-03-12T10:03:09.890Z,10.32
2023-03-12T10:06:11.243Z,12.98
2023-03-12T10:09:02.817Z,9.68
2023-03-12T10:11:37.233Z,8.15
2023-03-12T10:14:24.141Z,9.52
2023-03-12T10:17:03.163Z,8.45
2023-03-12T10:19:54.187Z,9.20
2023-03-12T10:22:42.159Z,9.13
2023-03-12T10:25:08.484Z,11.18
2023-03-12T10:27:37.171Z,11.57
2023-03-12T10:30:15.020Z,9.73
2023-03-12T10:32:46.717Z,8.77
2023-03-12T10:35:21.524Z,9.35
2023-03-12T10:37:56.131Z,10.02
2023-03-12T10:40:25.484Z,9.57
2023-03-12T10:42:52.793Z,9.82
2023-03-12T10:45:34.966Z,10.13
2023-03-12T10:48:11.599Z,11.02
2023-03-12T10:50:40.097Z,10.85
2023-03-12T10:53:29.621Z,11.38
2023-03-12T10:56:01.793Z,10.73
2023-03-12T10:58:33.749Z,12.02
2023-03-12T11:01:02.287Z,11.45
2023-03-12T11:03:29.761Z,13.70
2023-03-12T11:06:02.250Z,14.07
2023-03-12T11:08:35.257Z,13.80
2023-03-12T11:11:03.666Z,13.02
2023-03-12T11:13:39.077Z,14.05
2023-03-12T11:16:17.937Z,15.18
2023-03-12T11:19:01.425Z,13.20
2023-03-12T11:21:29.094Z,15.07
2023-03-12T11:23:58.275Z,13.57
2023-03-12T11:26:31.873Z,14.02
2023-03-12T11:29:10.932Z,14.38
2023-03-12T11:31:57.983Z,13.48
2023-03-12T11:34:31.207Z,13.35
2023-03-12T11:37:07.610Z,13.80
2023-03-12T11:39:42.122Z,14.05
2023-03-12T11:42:36.375Z,12.70
2023-03-12T11:45:04.061Z,12.73
2023-03-12T11:47:49.482Z,13.52
2023-03-12T11:50:36.651Z,12.15
2023-03-12T11:53:14.290Z,15.27
2023-03-12T11:56:05.561Z,14.45
2023-03-12T11:58:50.206Z,13.57
2023-03-12T12:01:51.126Z,15.05
2023-03-12T12:04:29.963Z,16.35
2023-03-12T12:07:24.528Z,14.75
2023-03-12T12:09:59.048Z,14.27
2023-03-12T12:12:43.784Z,15.18
2023-03-12T12:15:35.246Z,15.35
2023-03-12T12:18:36.092Z,15.98
2023-03-12T12:21:19.769Z,18.20
2023-03-12T12:23:58.505Z,16.88
2023-03-12T12:26:37.842Z,17.42
2023-03-12T12:29:12.256Z,17.92
2023-03-12T12:31:54.123Z,17.17
2023-03-12T12:34:31.502Z,20.27
2023-03-12T12:37:26.015Z,16.95
2023-03-12T12:40:21.046Z,19.77
2023-03-12T12:42:55.251Z,26.33
2023-03-12T12:45:25.452Z,17.75
2023-03-12T12:48:11.564Z,19.63
2023-03-12T12:50:39.997Z,22.10
2023-03-12T12:53:21.345Z,21.13
2023-03-12T12:56:25.919Z,24.92
2023-03-12T12:59:34.011Z,22.73
2023-03-12T13:02:03.313Z,24.27
2023-03-12T13:04:38.793Z,22.77
2023-03-12T13:07:20.597Z,30.40
2023-03-12T13:09:52.957Z,28.08
2023-03-12T13:12:34.763Z,25.35
2023-03-12T13:15:02.783Z,23.35
2023-03-12T13:17:30.895Z,26.80
2023-03-12T13:20:13.451Z,22.48
2023-03-12T13:22:58.159Z,26.20
2023-03-12T13:25:29.554Z,23.60
2023-03-12T13:28:16.021Z,32.55
2023-03-12T13:30:48.793Z,33.28
2023-03-12T13:33:18.355Z,31.55
2023-03-12T13:36:03.945Z,30.27
2023-03-12T13:38:57.868Z,30.27
2023-03-12T13:41:46.879Z,40.25
2023-03-12T13:44:38.447Z,31.30
2023-03-12T13:47:10.896Z,27.33
2023-03-12T13:50:00.053Z,31.55
2023-03-12T13:53:02.000Z,23.55
2023-03-12T13:55:30.798Z,28.58
2023-03-12T13:58:16.781Z,37.88
2023-03-12T14:00:49.383Z,31.05
2023-03-12T14:03:26.245Z,29.42
2023-03-12T14:06:07.120Z,24.42
2023-03-12T14:09:03.438Z,23.75
2023-03-12T14:12:07.510Z,26.55
2023-03-12T14:15:04.454Z,34.42
2023-03-12T14:17:34.182Z,35.13
2023-03-12T14:20:04.550Z,27.25
2023-03-12T14:22:37.491Z,25.10
2023-03-12T14:25:14.876Z,40.67
2023-03-12T14:27:44.612Z,27.25
2023-03-12T14:30:23.385Z,35.00
2023-03-12T14:32:54.894Z,26.88
2023-03-12T14:35:47.231Z,26.75
2023-03-12T14:38:20.277Z,19.77
2023-03-12T14:41:02.050Z,17.33
2023-03-12T14:43:31.023Z,27.02
2023-03-12T14:46:03.659Z,23.98
2023-03-12T14:48:36.279Z,28.92
2023-03-12T14:51:05.578Z,27.60
2023-03-12T14:53:37.698Z,24.52
2023-03-12T14:56:13.235Z,30.80
2023-03-12T14:58:48.166Z,28.08
2023-03-12T15:01:19.757Z,28.33
2023-03-12T15:03:50.116Z,26.20
2023-03-12T15:06:51.647Z,23.52
2023-03-12T15:09:22.272Z,30.00
2023-03-12T15:11:58.638Z,29.20
2023-03-12T15:14:28.283Z,23.98
2023-03-12T15:16:55.998Z,27.40
2023-03-12T15:19:31.291Z,26.98
2023-03-12T15:21:58.487Z,26.60
2023-03-12T15:24:25.825Z,24.40
2023-03-12T15:26:52.239Z,24.02
2023-03-12T15:29:27.358Z,27.50
2023-03-12T15:31:59.238Z,27.77
2023-03-12T15:34:39.273Z,25.70
2023-03-12T15:37:38.647Z,27.95
2023-03-12T15:40:20.880Z,32.63
2023-03-12T15:42:48.695Z,31.58
2023-03-12T15:45:26.280Z,38.92
2023-03-12T15:47:54.425Z,32.17
2023-03-12T15:50:31.793Z,30.55
2023-03-12T15:53:07.106Z,27.98
2023-03-12T15:55:35.681Z,27.23
2023-03-12T15:58:02.976Z,22.63
2023-03-12T16:00:29.416Z,35.15
2023-03-12T16:03:02.439Z,30.83
2023-03-12T16:05:35.404Z,29.17
2023-03-12T16:08:12.782Z,27.13
2023-03-12T16:10:39.373Z,30.10
2023-03-12T16:13:05.815Z,26.63
2023-03-12T16:15:36.341Z,28.20
2023-03-12T16:18:02.917Z,30.55
2023-03-12T16:20:29.645Z,26.25
2023-03-12T16:22:56.278Z,26.00
2023-03-12T16:25:23.732Z,25.17
2023-03-12T16:27:54.738Z,34.00
2023-03-12T16:30:27.236Z,27.02
2023-03-12T16:32:53.769Z,26.20
2023-03-12T16:35:20.944Z,36.47
2023-03-12T16:37:47.485Z,29.60
2023-03-12T16:40:24.021Z,25.13
2023-03-12T16:43:02.425Z,30.83
2023-03-12T16:45:30.242Z,21.27
2023-03-12T16:48:02.746Z,29.35
2023-03-12T16:50:29.470Z,28.15
2023-03-12T16:52:56.646Z,29.92
2023-03-12T16:55:27.525Z,31.05
2023-03-12T16:58:00.310Z,36.38
2023-03-12T17:00:32.960Z,19.27
2023-03-12T17:02:59.496Z,25.58
2023-03-12T17:05:28.933Z,27.33
2023-03-12T17:07:56.261Z,18.83
2023-03-12T17:10:24.234Z,28.60
2023-03-12T17:12:51.691Z,29.17
2023-03-12T17:15:25.884Z,27.80
2023-03-12T17:17:54.778Z,23.73
2023-03-12T17:20:23.638Z,27.58
2023-03-12T17:22:50.029Z,28.42
2023-03-12T17:25:29.340Z,31.25
2023-03-12T17:27:59.115Z,21.80
2023-03-12T17:30:27.388Z,31.45
2023-03-12T17:32:59.981Z,24.98
2023-03-12T17:35:26.410Z,24.42
2023-03-12T17:37:52.789Z,41.58
2023-03-12T17:40:19.331Z,27.27
2023-03-12T17:42:45.751Z,26.67
2023-03-12T17:45:12.154Z,35.90
2023-03-12T17:47:38.614Z,29.35
2023-03-12T17:50:06.563Z,24.52
2023-03-12T17:52:33.901Z,23.52
2023-03-12T17:55:01.112Z,23.48
2023-03-12T17:57:28.022Z,23.17
2023-03-12T17:59:54.394Z,26.70
2023-03-12T18:02:21.304Z,26.77
2023-03-12T18:04:47.771Z,26.38
2023-03-12T18:07:14.389Z,21.70
2023-03-12T18:09:40.805Z,36.00
2023-03-12T18:12:07.559Z,21.00
2023-03-12T18:14:34.030Z,29.17
2023-03-12T18:17:00.417Z,21.85
2023-03-12T18:19:30.488Z,24.77
2023-03-12T18:21:56.931Z,24.98
2023-03-12T18:24:23.294Z,19.55
2023-03-12T18:26:51.506Z,19.65
2023-03-12T18:29:18.072Z,23.52
2023-03-12T18:31:44.501Z,22.95
2023-03-12T18:34:10.931Z,24.85
2023-03-12T18:36:37.327Z,23.02
2023-03-12T18:39:04.874Z,23.52
2023-03-12T18:41:32.779Z,26.13
2023-03-12T18:44:00.285Z,28.90
2023-03-12T18:46:27.139Z,25.48
2023-03-12T18:48:53.779Z,26.95
2023-03-12T18:51:20.347Z,29.92
2023-03-12T18:53:46.817Z,26.60
2023-03-12T18:56:13.638Z,24.23
2023-03-12T18:58:40.003Z,26.63
2023-03-12T19:01:06.416Z,22.17
2023-03-12T19:03:36.117Z,33.78
2023-03-12T19:06:03.692Z,30.73
2023-03-12T19:08:30.142Z,24.17
2023-03-12T19:10:56.532Z,19.70
2023-03-12T19:13:23.240Z,27.70
2023-03-12T19:15:49.699Z,26.60
2023-03-12T19:18:16.150Z,23.83
2023-03-12T19:20:42.531Z,21.60
2023-03-12T19:23:09.246Z,29.42
2023-03-12T19:25:35.662Z,41.25
2023-03-12T19:28:02.037Z,27.48
2023-03-12T19:30:30.549Z,25.85
2023-03-12T19:32:56.993Z,26.80
2023-03-12T19:35:23.455Z,31.65
2023-03-12T19:37:49.793Z,22.88
2023-03-12T19:40:16.349Z,23.52
2023-03-12T19:42:42.740Z,26.33
2023-03-12T19:45:10.190Z,23.15
2023-03-12T19:47:36.676Z,26.05
2023-03-12T19:50:03.351Z,29.40
2023-03-12T19:52:29.964Z,25.52
2023-03-12T19:55:04.338Z,21.75
2023-03-12T19:57:31.965Z,28.80
2023-03-12T19:59:58.851Z,22.88
2023-03-12T20:02:25.996Z,27.35
2023-03-12T20:04:52.584Z,21.35
2023-03-12T20:07:19.012Z,26.30
2023-03-12T20:09:45.562Z,27.05
2023-03-12T20:12:12.072Z,18.73
2023-03-12T20:14:39.845Z,27.50
2023-03-12T20:17:07.774Z,25.17
2023-03-12T20:19:34.170Z,26.60
2023-03-12T20:22:00.598Z,27.23
2023-03-12T20:24:26.996Z,26.50
2023-03-12T20:26:53.406Z,27.10
2023-03-12T20:29:19.757Z,27.42
2023-03-12T20:31:46.221Z,29.42
2023-03-12T20:34:12.725Z,24.92
2023-03-12T20:36:39.103Z,28.00
2023-03-12T20:39:05.549Z,22.15
2023-03-12T20:41:33.102Z,19.58
2023-03-12T20:43:59.843Z,22.17
2023-03-12T20:46:26.561Z,29.83
2023-03-12T20:48:54.993Z,27.00
2023-03-12T20:51:22.691Z,22.35
2023-03-12T20:53:49.068Z,26.40
2023-03-12T20:56:15.490Z,28.02
2023-03-12T20:58:41.994Z,28.45
2023-03-12T21:01:08.541Z,25.77
2023-03-12T21:03:34.919Z,25.70
2023-03-12T21:06:02.521Z,24.63
2023-03-12T21:08:29.894Z,24.33
2023-03-12T21:10:56.595Z,27.98
2023-03-12T21:13:23.881Z,26.38
2023-03-12T21:15:50.745Z,24.42
2023-03-12T21:18:17.817Z,25.83
2023-03-12T21:20:44.515Z,21.85
2023-03-12T21:23:11.615Z,24.55
2023-03-12T21:25:40.077Z,20.45
2023-03-12T21:28:08.560Z,20.85
2023-03-12T21:30:35.309Z,21.25
2023-03-12T21:33:03.750Z,21.55
2023-03-12T21:35:30.170Z,19.23
2023-03-12T21:37:56.742Z,26.60
2023-03-12T21:40:23.725Z,22.38
2023-03-12T21:42:50.537Z,26.85
2023-03-12T21:45:17.023Z,23.33
2023-03-12T21:47:43.502Z,29.33
2023-03-12T21:50:10.882Z,25.20
2023-03-12T21:52:42.913Z,26.30
2023-03-12T21:55:10.347Z,22.27
2023-03-12T21:57:36.761Z,20.52
2023-03-12T22:00:04.352Z,19.80
2023-03-12T22:02:31.606Z,18.80
2023-03-12T22:05:01.195Z,24.63
2023-03-12T22:07:30.269Z,22.05
2023-03-12T22:09:57.024Z,26.73
2023-03-12T22:12:23.430Z,23.95
2023-03-12T22:14:49.773Z,24.88
2023-03-12T22:17:17.069Z,23.40
2023-03-12T22:19:43.512Z,24.15
2023-03-12T22:22:11.302Z,24.85
2023-03-12T22:24:37.719Z,28.27
2023-03-12T22:27:07.219Z,24.92
2023-03-12T22:29:34.658Z,21.38
2023-03-12T22:32:01.198Z,25.63
2023-03-12T22:34:29.410Z,20.88
2023-03-12T22:36:55.817Z,25.25
2023-03-12T22:39:22.317Z,22.38
2023-03-12T22:41:53.504Z,19.40
2023-03-12T22:44:19.959Z,17.77
2023-03-12T22:46:46.456Z,26.25
2023-03-12T22:49:12.925Z,20.10
2023-03-12T22:51:39.305Z,17.42
2023-03-12T22:54:05.785Z,19.58
2023-03-12T22:56:32.554Z,19.60
2023-03-12T22:58:58.976Z,19.23
2023-03-12T23:01:25.584Z,24.70
2023-03-12T23:03:52.024Z,20.35
2023-03-12T23:06:21.277Z,21.85
2023-03-12T23:08:48.259Z,18.33
2023-03-12T23:11:15.326Z,18.63
2023-03-12T23:13:44.373Z,23.92
2023-03-12T23:16:13.827Z,21.95
2023-03-12T23:18:40.750Z,12.30
2023-03-12T23:21:10.557Z,15.90
2023-03-12T23:23:39.463Z,19.08
2023-03-12T23:26:06.419Z,16.90
2023-03-12T23:28:32.848Z,21.20
2023-03-12T23:31:02.282Z,20.73
2023-03-12T23:33:29.837Z,22.17
2023-03-12T23:36:00.527Z,23.77
2023-03-12T23:38:27.817Z,21.65
2023-03-12T23:41:02.989Z,18.02
2023-03-12T23:45:57.560Z,22.88
2023-03-12T23:48:25.427Z,18.88
2023-03-12T23:50:51.822Z,17.45
2023-03-12T23:53:18.276Z,16.75
2023-03-12T23:55:54.994Z,19.08
2023-03-12T23:58:21.602Z,18.02
